Time;durP1;ratioP1;P1;durP2;ratioP2;P2;SDS_P1;SDS_P2;PMS_P1;PMS_P2;Temp;Humidity;BMP_temperature;BMP_pressure;BME280_temperature;BME280_humidity;BME280_pressure;Samples;Min_cycle;Max_cycle;Signal;HPM_P1;HPM_P2
2022/11/10 00:01:45;;;;;;;;;;;;;;;7.76;69.61;100527.94;5087394;28;19920;-83
2022/11/10 00:04:10;;;;;;;;;;;;;;;7.84;69.66;100531.53;5088435;28;19919;-82
2022/11/10 00:06:36;;;;;;;;;;;;;;;7.80;70.06;100535.00;5088335;28;19966;-83
2022/11/10 00:09:01;;;;;;;;;;;;;;;7.88;69.75;100537.72;5088261;28;19916;-83
2022/11/10 00:11:26;;;;;;;;;;;;;;;7.86;70.33;100544.66;5088771;28;19926;-83
2022/11/10 00:19:39;;;;;;;;;;;;;;;7.83;69.69;100540.28;5072105;28;19976;-83
2022/11/10 00:22:04;;;;;;;;;;;;;;;7.81;69.86;100541.13;5065512;28;20397;-83
2022/11/10 00:24:30;;;;;;;;;;;;;;;7.83;70.06;100542.00;5066786;28;19916;-81
2022/11/10 00:26:55;;;;;;;;;;;;;;;7.86;70.43;100539.41;5068371;28;19922;-81
2022/11/10 00:29:21;;;;;;;;;;;;;;;7.80;70.64;100536.72;5078478;28;19973;-81
2022/11/10 00:31:46;;;;;;;;;;;;;;;7.74;71.06;100539.28;5088390;28;20374;-81
2022/11/10 00:34:13;;;;;;;;;;;;;;;7.68;70.48;100530.50;5088533;28;19934;-81
2022/11/10 00:36:39;;;;;;;;;;;;;;;7.61;70.63;100523.41;5088369;28;19915;-81
2022/11/10 00:39:04;;;;;;;;;;;;;;;7.65;71.19;100527.84;5087744;28;20010;-82
2022/11/10 00:41:29;;;;;;;;;;;;;;;7.68;70.75;100520.00;5087928;28;19916;-82
2022/11/10 00:43:54;;;;;;;;;;;;;;;7.61;70.03;100522.53;5087946;28;19922;-82
2022/11/10 00:46:20;;;;;;;;;;;;;;;7.41;70.80;100523.19;5088291;28;19916;-82
2022/11/10 00:48:45;;;;;;;;;;;;;;;7.32;71.03;100517.84;5087964;28;20007;-82
2022/11/10 00:51:28;;;;;;;;;;;;;;;7.11;73.17;100518.50;5087672;28;19920;-82
2022/11/10 00:53:54;;;;;;;;;;;;;;;7.35;72.16;100521.41;5087512;28;19919;-82
2022/11/10 00:56:20;;;;;;;;;;;;;;;7.50;72.31;100514.56;5079267;28;20374;-83
2022/11/10 00:58:45;;;;;;;;;;;;;;;7.46;71.28;100510.13;5077388;28;19947;-83
2022/11/10 01:01:11;;;;;;;;;;;;;;;6.87;71.77;100519.06;5069608;28;19967;-83
2022/11/10 01:03:37;;;;;;;;;;;;;;;6.84;71.36;100521.63;5080074;28;19920;-82
2022/11/10 01:06:07;;;;;;;;;;;;;;;6.65;73.43;100518.75;5088055;28;19916;-83
2022/11/10 01:08:33;;;;;;;;;;;;;;;6.79;72.90;100527.69;5088011;28;19979;-83
2022/11/10 01:11:05;;;;;;;;;;;;;;;6.97;71.87;100527.06;5087649;28;20405;-83
2022/11/10 01:13:31;;;;;;;;;;;;;;;6.94;72.16;100520.91;5087634;28;19924;-83
2022/11/10 01:15:56;;;;;;;;;;;;;;;7.05;71.72;100521.03;5088112;28;19919;-83
2022/11/10 01:18:21;;;;;;;;;;;;;;;7.05;71.02;100526.28;5087146;28;20412;-83
2022/11/10 01:20:50;;;;;;;;;;;;;;;7.16;71.31;100516.81;5087246;28;19973;-83
2022/11/10 01:23:15;;;;;;;;;;;;;;;7.31;70.79;100516.09;5087036;28;19915;-83
2022/11/10 01:25:41;;;;;;;;;;;;;;;7.27;69.89;100514.31;5087782;28;19912;-82
2022/11/10 01:28:06;;;;;;;;;;;;;;;7.24;69.89;100514.25;5087019;28;20663;-82
2022/11/10 01:30:31;;;;;;;;;;;;;;;7.24;69.79;100512.50;5086603;28;19985;-81
2022/11/10 01:32:57;;;;;;;;;;;;;;;7.17;70.24;100508.06;5087220;28;19922;-81
2022/11/10 01:35:22;;;;;;;;;;;;;;;7.28;69.63;100516.94;5087567;28;20431;-82
2022/11/10 01:37:50;;;;;;;;;;;;;;;7.33;69.10;100510.00;5087290;28;19920;-82
2022/11/10 01:40:15;;;;;;;;;;;;;;;7.14;69.21;100510.66;5087183;28;20002;-82
2022/11/10 01:43:00;;;;;;;;;;;;;;;7.16;70.07;100515.03;5087568;28;20011;-82
2022/11/10 01:45:38;;;;;;;;;;;;;;;7.16;69.42;100507.16;5086912;28;20432;-82
2022/11/10 01:48:05;;;;;;;;;;;;;;;7.17;70.29;100508.94;5086723;28;20312;-82
2022/11/10 01:50:33;;;;;;;;;;;;;;;7.21;70.77;100507.22;5087209;28;20003;-81
2022/11/10 01:53:00;;;;;;;;;;;;;;;7.05;71.14;100503.53;5087069;28;20367;-81
2022/11/10 01:55:26;;;;;;;;;;;;;;;7.20;71.47;100502.88;5086412;28;19998;-82
2022/11/10 01:57:51;;;;;;;;;;;;;;;7.29;70.91;100499.44;5087354;28;19971;-82
2022/11/10 02:00:18;;;;;;;;;;;;;;;7.23;70.05;100504.63;5087135;28;20417;-81
2022/11/10 02:02:48;;;;;;;;;;;;;;;6.92;70.34;100504.25;5086941;28;20351;-82
2022/11/10 02:05:14;;;;;;;;;;;;;;;7.03;70.51;100505.28;5087527;28;19950;-82
2022/11/10 02:07:40;;;;;;;;;;;;;;;6.94;70.37;100510.41;5086971;28;20002;-81
2022/11/10 02:10:12;;;;;;;;;;;;;;;6.89;70.71;100517.31;5087175;28;19916;-81
2022/11/10 02:12:38;;;;;;;;;;;;;;;6.86;70.72;100517.28;5087059;28;19912;-81
2022/11/10 02:15:08;;;;;;;;;;;;;;;6.92;71.13;100514.75;5085606;28;19916;-82
2022/11/10 02:17:33;;;;;;;;;;;;;;;7.08;69.98;100508.84;5087165;28;20042;-82
2022/11/10 02:20:03;;;;;;;;;;;;;;;7.04;70.21;100507.03;5087092;28;19994;-82
2022/11/10 02:22:28;;;;;;;;;;;;;;;6.76;70.73;100513.66;5085970;28;19916;-82
2022/11/10 02:24:54;;;;;;;;;;;;;;;6.82;71.30;100519.00;5086530;28;19946;-82
2022/11/10 02:27:19;;;;;;;;;;;;;;;6.77;71.98;100520.69;5086682;28;19916;-83
2022/11/10 02:29:44;;;;;;;;;;;;;;;6.93;71.17;100522.63;5086807;28;19912;-81
2022/11/10 02:32:10;;;;;;;;;;;;;;;7.03;70.84;100525.38;5088690;28;19916;-81
2022/11/10 02:34:35;;;;;;;;;;;;;;;6.81;70.88;100519.84;5090475;28;19916;-81
2022/11/10 02:37:00;;;;;;;;;;;;;;;6.76;70.70;100522.41;5090392;28;19984;-82
2022/11/10 02:39:25;;;;;;;;;;;;;;;6.80;71.08;100529.47;5090734;28;19920;-83
2022/11/10 02:41:51;;;;;;;;;;;;;;;6.77;71.55;100533.78;5090497;28;19951;-82
2022/11/10 02:44:16;;;;;;;;;;;;;;;6.91;71.69;100534.84;5090593;28;20355;-82
2022/11/10 02:46:41;;;;;;;;;;;;;;;6.96;71.39;100529.66;5090381;28;19919;-82
2022/11/10 02:49:07;;;;;;;;;;;;;;;6.97;70.97;100528.81;5090079;28;19919;-82
2022/11/10 02:51:32;;;;;;;;;;;;;;;6.90;71.49;100533.06;5088751;28;19965;-83
2022/11/10 02:53:57;;;;;;;;;;;;;;;6.93;71.53;100532.25;5090294;28;19919;-83
2022/11/10 02:56:23;;;;;;;;;;;;;;;6.96;71.35;100535.78;5089879;28;19916;-82
2022/11/10 02:58:48;;;;;;;;;;;;;;;7.00;71.28;100536.72;5090208;28;20669;-83
2022/11/10 03:01:13;;;;;;;;;;;;;;;6.84;71.44;100543.47;5090162;28;19922;-83
2022/11/10 03:03:38;;;;;;;;;;;;;;;6.78;71.30;100540.78;5090236;28;19996;-83
2022/11/10 03:06:04;;;;;;;;;;;;;;;6.68;72.10;100542.41;5089699;28;19927;-83
2022/11/10 03:08:29;;;;;;;;;;;;;;;6.70;72.10;100542.41;5089769;28;19966;-83
2022/11/10 03:10:55;;;;;;;;;;;;;;;6.78;71.54;100543.41;5089997;28;20652;-83
2022/11/10 03:13:21;;;;;;;;;;;;;;;6.64;72.03;100540.59;5090126;28;19916;-82
2022/11/10 03:15:46;;;;;;;;;;;;;;;6.61;72.78;100538.81;5090373;28;20373;-82
2022/11/10 03:18:12;;;;;;;;;;;;;;;6.70;72.54;100535.44;5089181;28;19965;-82
2022/11/10 03:20:37;;;;;;;;;;;;;;;6.69;72.62;100536.31;5089447;28;19920;-82
2022/11/10 03:23:03;;;;;;;;;;;;;;;6.64;72.38;100537.97;5089696;28;19923;-82
2022/11/10 03:25:28;;;;;;;;;;;;;;;6.76;72.04;100537.25;5089613;28;19988;-83
2022/11/10 03:27:54;;;;;;;;;;;;;;;6.67;71.83;100529.28;5089725;28;19915;-83
2022/11/10 03:30:19;;;;;;;;;;;;;;;6.30;75.53;100533.97;5090201;28;19923;-83
2022/11/10 03:32:44;;;;;;;;;;;;;;;6.55;74.22;100530.88;5089536;28;19972;-83
2022/11/10 03:35:10;;;;;;;;;;;;;;;6.42;71.21;100532.41;5089444;28;20022;-82
2022/11/10 03:37:35;;;;;;;;;;;;;;;6.40;71.16;100535.88;5089471;28;19916;-83
2022/11/10 03:40:01;;;;;;;;;;;;;;;6.16;71.59;100539.84;5089388;28;19916;-83
2022/11/10 03:42:26;;;;;;;;;;;;;;;6.14;71.66;100525.84;5087054;28;20385;-82
2022/11/10 03:44:51;;;;;;;;;;;;;;;6.09;71.50;100532.75;5074767;28;19920;-83
2022/11/10 03:47:17;;;;;;;;;;;;;;;6.02;71.87;100536.13;5089011;28;20540;-82
2022/11/10 03:49:42;;;;;;;;;;;;;;;6.21;71.44;100532.97;5088485;28;19916;-83
2022/11/10 03:52:07;;;;;;;;;;;;;;;6.24;71.44;100537.34;5089930;28;20056;-83
2022/11/10 03:54:32;;;;;;;;;;;;;;;6.06;71.79;100535.34;5089047;28;19912;-82
2022/11/10 03:56:58;;;;;;;;;;;;;;;6.18;71.66;100535.53;5088991;28;20715;-82
2022/11/10 03:59:23;;;;;;;;;;;;;;;6.15;72.00;100542.44;5089546;28;19950;-82
2022/11/10 04:01:49;;;;;;;;;;;;;;;6.25;71.63;100542.63;5074128;28;20318;-83
2022/11/10 04:09:42;;;;;;;;;;;;;;;5.89;72.45;100545.47;5088815;28;19919;-81
2022/11/10 04:17:35;;;;;;;;;;;;;;;5.74;73.69;100544.34;5072027;28;19978;-81
2022/11/10 04:20:02;;;;;;;;;;;;;;;5.97;73.01;100546.53;5082081;28;21313;-81
2022/11/10 04:25:11;;;;;;;;;;;;;;;6.00;72.86;100545.72;5088434;28;19918;-84
2022/11/10 04:27:37;;;;;;;;;;;;;;;5.98;73.10;100550.00;5088587;28;19916;-84
2022/11/10 04:30:03;;;;;;;;;;;;;;;5.81;72.62;100555.81;5088520;28;19916;-83
2022/11/10 04:32:28;;;;;;;;;;;;;;;5.52;73.04;100553.53;5078324;28;20352;-82
2022/11/10 04:34:53;;;;;;;;;;;;;;;5.15;73.10;100559.75;5084979;28;19920;-82
2022/11/10 04:37:19;;;;;;;;;;;;;;;5.02;72.82;100563.88;5088389;28;20310;-82
2022/11/10 04:39:44;;;;;;;;;;;;;;;4.94;73.29;100563.69;5079362;28;20412;-83
2022/11/10 04:42:09;;;;;;;;;;;;;;;4.98;73.53;100562.03;5084279;28;19915;-79
2022/11/10 04:44:34;;;;;;;;;;;;;;;5.14;73.59;100560.59;5083836;28;19958;-80
2022/11/10 04:47:00;;;;;;;;;;;;;;;5.20;74.17;100560.72;5087802;28;20396;-79
2022/11/10 04:49:25;;;;;;;;;;;;;;;5.43;72.94;100557.72;5087736;28;19920;-80
2022/11/10 04:51:50;;;;;;;;;;;;;;;5.15;73.76;100562.38;5082764;28;19920;-80
2022/11/10 04:54:16;;;;;;;;;;;;;;;5.11;73.85;100564.06;5076433;28;19919;-82
2022/11/10 04:56:41;;;;;;;;;;;;;;;5.04;74.13;100564.78;5081547;28;19985;-81
2022/11/10 04:59:06;;;;;;;;;;;;;;;5.22;73.60;100566.00;5084198;28;19916;-81
2022/11/10 05:01:31;;;;;;;;;;;;;;;5.04;74.04;100570.00;5083647;28;19969;-81
2022/11/10 05:03:57;;;;;;;;;;;;;;;5.01;75.12;100572.56;5079926;28;19926;-84
2022/11/10 05:06:22;;;;;;;;;;;;;;;4.93;75.90;100571.50;5074328;28;19922;-84
2022/11/10 05:08:48;;;;;;;;;;;;;;;5.11;75.44;100579.75;5071746;28;19959;-84
2022/11/10 05:11:14;;;;;;;;;;;;;;;5.12;75.81;100571.03;5062591;28;19960;-80
2022/11/10 05:13:39;;;;;;;;;;;;;;;5.28;75.98;100579.22;5067616;28;19912;-81
2022/11/10 05:16:05;;;;;;;;;;;;;;;5.33;75.98;100577.56;5064906;28;19930;-82
2022/11/10 05:18:30;;;;;;;;;;;;;;;5.20;76.57;100576.44;5088530;28;19919;-80
2022/11/10 05:20:55;;;;;;;;;;;;;;;5.42;76.34;100580.34;5086737;28;19912;-81
2022/11/10 05:23:40;;;;;;;;;;;;;;;5.34;75.30;100574.09;5085794;28;19920;-84
2022/11/10 05:26:06;;;;;;;;;;;;;;;5.17;75.80;100578.97;5070085;28;19995;-83
2022/11/10 05:28:31;;;;;;;;;;;;;;;5.19;76.48;100586.03;5080992;28;20014;-84
2022/11/10 05:30:56;;;;;;;;;;;;;;;5.35;76.13;100586.34;5075827;28;20002;-84
2022/11/10 05:33:22;;;;;;;;;;;;;;;5.28;76.63;100587.94;5073160;28;19935;-83
2022/11/10 05:35:48;;;;;;;;;;;;;;;5.39;77.02;100590.75;5084427;28;20309;-83
2022/11/10 05:38:13;;;;;;;;;;;;;;;5.57;76.70;100585.91;5085986;28;19923;-80
2022/11/10 05:40:38;;;;;;;;;;;;;;;5.62;76.90;100603.44;5086706;28;20392;-85
2022/11/10 05:43:03;;;;;;;;;;;;;;;5.64;76.09;100601.72;5086630;28;19912;-86
2022/11/10 05:45:29;;;;;;;;;;;;;;;5.59;75.98;100606.88;5086431;28;19927;-89
2022/11/10 05:47:54;;;;;;;;;;;;;;;5.55;76.43;100612.91;5087137;28;20370;-88
2022/11/10 05:50:21;;;;;;;;;;;;;;;5.30;78.24;100615.03;5087195;28;19923;-88
2022/11/10 05:52:48;;;;;;;;;;;;;;;5.46;78.10;100617.97;5083843;28;20007;-90
2022/11/10 05:55:18;;;;;;;;;;;;;;;5.52;78.35;100616.34;5087083;28;19920;-89
2022/11/10 05:57:47;;;;;;;;;;;;;;;5.62;78.40;100624.38;5087146;28;19920;-90
2022/11/10 06:00:13;;;;;;;;;;;;;;;5.66;78.64;100626.22;5086207;28;20719;-88
2022/11/10 06:02:39;;;;;;;;;;;;;;;5.78;78.52;100623.84;5088561;28;19926;-87
2022/11/10 06:05:08;;;;;;;;;;;;;;;5.82;79.10;100628.25;5086684;28;20305;-92
2022/11/10 06:07:33;;;;;;;;;;;;;;;6.08;78.25;100631.41;5090750;28;19920;-91
2022/11/10 06:10:01;;;;;;;;;;;;;;;6.13;78.76;100631.47;5092525;28;19920;-91
2022/11/10 06:12:29;;;;;;;;;;;;;;;6.41;77.66;100629.34;5092684;28;19916;-91
2022/11/10 06:14:57;;;;;;;;;;;;;;;6.47;78.95;100631.19;5092461;28;19923;-91
2022/11/10 06:17:23;;;;;;;;;;;;;;;6.94;80.63;100636.31;5090969;28;20317;-91
2022/11/10 06:19:49;;;;;;;;;;;;;;;7.23;80.48;100639.38;5090887;28;19916;-91
2022/11/10 06:22:14;;;;;;;;;;;;;;;7.61;80.11;100645.97;5091513;28;19981;-90
2022/11/10 06:24:39;;;;;;;;;;;;;;;7.62;78.50;100635.47;5091362;28;19923;-89
2022/11/10 06:27:05;;;;;;;;;;;;;;;7.46;78.07;100642.28;5091231;28;19924;-90
2022/11/10 06:29:30;;;;;;;;;;;;;;;7.46;77.78;100647.53;5091138;28;19920;-90
2022/11/10 06:31:56;;;;;;;;;;;;;;;7.75;78.11;100648.75;5091075;28;19916;-91
2022/11/10 06:34:21;;;;;;;;;;;;;;;8.02;77.60;100651.69;5090858;28;19922;-89
2022/11/10 06:36:47;;;;;;;;;;;;;;;8.31;77.57;100655.47;5090618;28;19912;-88
2022/11/10 06:39:12;;;;;;;;;;;;;;;8.72;76.53;100644.47;5088779;28;19999;-88
2022/11/10 06:41:37;;;;;;;;;;;;;;;8.95;75.78;100648.16;5090373;28;19931;-87
2022/11/10 06:44:03;;;;;;;;;;;;;;;9.01;74.73;100654.34;5090622;28;19912;-87
2022/11/10 06:46:28;;;;;;;;;;;;;;;9.06;74.77;100650.84;5090887;28;19963;-88
2022/11/10 06:48:53;;;;;;;;;;;;;;;9.13;73.13;100657.91;5090608;28;19946;-88
2022/11/10 06:51:19;;;;;;;;;;;;;;;9.21;72.84;100651.84;5090598;28;19931;-87
2022/11/10 06:53:44;;;;;;;;;;;;;;;9.14;73.78;100654.44;5090120;28;20297;-87
2022/11/10 06:56:09;;;;;;;;;;;;;;;9.38;74.22;100647.53;5090192;28;19970;-87
2022/11/10 06:58:35;;;;;;;;;;;;;;;9.40;74.42;100658.06;5090538;28;19945;-87
2022/11/10 07:01:00;;;;;;;;;;;;;;;9.51;73.93;100651.09;5089010;28;20768;-87
2022/11/10 07:03:25;;;;;;;;;;;;;;;9.67;73.74;100655.56;5090306;28;19916;-87
2022/11/10 07:05:51;;;;;;;;;;;;;;;9.93;72.77;100649.50;5090562;28;19916;-87
2022/11/10 07:08:16;;;;;;;;;;;;;;;9.97;72.25;100651.25;5090005;28;19916;-88
2022/11/10 07:10:42;;;;;;;;;;;;;;;10.20;71.92;100658.34;5090050;28;19955;-87
2022/11/10 07:13:08;;;;;;;;;;;;;;;10.01;72.66;100655.69;5090057;28;19916;-87
2022/11/10 07:15:33;;;;;;;;;;;;;;;10.27;72.54;100651.31;5090015;28;19969;-87
2022/11/10 07:17:59;;;;;;;;;;;;;;;10.56;71.32;100652.25;5088997;28;19916;-87
2022/11/10 07:20:25;;;;;;;;;;;;;;;10.67;71.12;100646.09;5089426;28;19916;-87
2022/11/10 07:22:55;;;;;;;;;;;;;;;11.02;70.24;100650.50;5089534;28;19916;-86
2022/11/10 07:25:20;;;;;;;;;;;;;;;11.33;68.76;100650.41;5089812;28;19911;-87
2022/11/10 07:27:51;;;;;;;;;;;;;;;11.65;67.70;100651.19;5089397;28;20307;-87
2022/11/10 07:30:17;;;;;;;;;;;;;;;11.46;68.28;100655.66;5090074;28;20017;-86
2022/11/10 07:32:42;;;;;;;;;;;;;;;11.68;67.92;100652.94;5089799;28;20377;-88
2022/11/10 07:35:07;;;;;;;;;;;;;;;11.72;67.01;100652.03;5089575;28;19983;-89
2022/11/10 07:37:33;;;;;;;;;;;;;;;11.88;66.79;100650.19;5088488;28;19923;-89
2022/11/10 07:39:58;;;;;;;;;;;;;;;12.22;65.54;100650.03;5088384;28;20018;-88
2022/11/10 07:42:23;;;;;;;;;;;;;;;12.21;64.67;100650.06;5089185;28;19995;-89
2022/11/10 07:44:49;;;;;;;;;;;;;;;12.48;63.66;100648.97;5089384;28;19912;-88
2022/11/10 07:47:14;;;;;;;;;;;;;;;11.99;64.56;100651.03;5088822;28;19912;-86
2022/11/10 07:49:40;;;;;;;;;;;;;;;12.25;64.36;100655.31;5089283;28;20301;-89
2022/11/10 07:52:05;;;;;;;;;;;;;;;11.75;65.87;100652.00;5089165;28;19919;-88
2022/11/10 07:54:30;;;;;;;;;;;;;;;12.23;65.54;100648.25;5089268;28;20389;-86
2022/11/10 07:56:56;;;;;;;;;;;;;;;12.22;65.39;100649.13;5089172;28;19923;-89
2022/11/10 07:59:21;;;;;;;;;;;;;;;12.29;64.52;100648.22;5089260;28;19927;-87
2022/11/10 08:01:46;;;;;;;;;;;;;;;12.18;65.41;100656.22;5089008;28;20370;-89
2022/11/10 08:04:14;;;;;;;;;;;;;;;12.20;66.39;100651.78;5089087;28;19962;-91
2022/11/10 08:06:40;;;;;;;;;;;;;;;12.08;64.71;100652.78;5087361;28;20320;-91
2022/11/10 08:09:05;;;;;;;;;;;;;;;11.78;65.26;100657.28;5088488;28;19965;-88
2022/11/10 08:11:30;;;;;;;;;;;;;;;11.37;67.21;100655.69;5088860;28;20435;-88
2022/11/10 08:13:56;;;;;;;;;;;;;;;11.32;68.06;100661.88;5088615;28;19919;-89
2022/11/10 08:16:21;;;;;;;;;;;;;;;11.90;67.21;100650.19;5089013;28;19946;-90
2022/11/10 08:18:46;;;;;;;;;;;;;;;12.42;64.75;100652.56;5088088;28;20545;-90
2022/11/10 08:21:27;;;;;;;;;;;;;;;12.55;65.14;100655.97;5090707;28;19912;-92
2022/11/10 08:23:52;;;;;;;;;;;;;;;12.94;63.75;100658.28;5088013;28;19916;-89
2022/11/10 08:26:20;;;;;;;;;;;;;;;13.08;63.15;100656.38;5089339;28;19922;-92
2022/11/10 08:28:47;;;;;;;;;;;;;;;12.84;62.45;100663.66;5088090;28;20366;-89
2022/11/10 08:31:13;;;;;;;;;;;;;;;13.41;61.32;100662.25;5088087;28;19935;-90
2022/11/10 08:33:38;;;;;;;;;;;;;;;13.41;62.59;100660.47;5088279;28;20358;-89
2022/11/10 08:36:04;;;;;;;;;;;;;;;13.31;61.56;100668.50;5087926;28;20476;-87
2022/11/10 08:38:29;;;;;;;;;;;;;;;13.17;62.25;100664.22;5088118;28;19919;-87
2022/11/10 08:40:55;;;;;;;;;;;;;;;12.87;63.61;100662.78;5087520;28;19915;-86
2022/11/10 08:43:20;;;;;;;;;;;;;;;13.15;63.11;100654.56;5087857;28;19922;-85
2022/11/10 08:45:46;;;;;;;;;;;;;;;13.10;63.01;100649.31;5088784;28;19951;-85
2022/11/10 08:48:13;;;;;;;;;;;;;;;13.10;63.32;100656.34;5088024;28;19915;-85
2022/11/10 08:50:38;;;;;;;;;;;;;;;13.08;62.93;100654.63;5088074;28;19942;-85
2022/11/10 08:53:04;;;;;;;;;;;;;;;13.37;62.54;100657.88;5087781;28;20409;-85
2022/11/10 08:55:30;;;;;;;;;;;;;;;13.22;62.32;100654.47;5088283;28;19916;-85
2022/11/10 08:57:59;;;;;;;;;;;;;;;12.69;64.52;100651.44;5086867;28;20003;-85
2022/11/10 09:00:25;;;;;;;;;;;;;;;12.43;65.54;100648.13;5088166;28;19916;-85
2022/11/10 09:02:50;;;;;;;;;;;;;;;13.06;63.47;100652.88;5087361;28;20397;-85
2022/11/10 09:05:15;;;;;;;;;;;;;;;13.26;62.79;100642.94;5087734;28;19935;-85
2022/11/10 09:07:42;;;;;;;;;;;;;;;13.31;62.78;100645.53;5088543;28;20392;-86
2022/11/10 09:10:07;;;;;;;;;;;;;;;13.16;62.89;100640.41;5087701;28;20586;-85
2022/11/10 09:12:32;;;;;;;;;;;;;;;13.13;63.36;100641.34;5088193;28;19912;-85
2022/11/10 09:14:58;;;;;;;;;;;;;;;13.35;62.68;100647.31;5087669;28;19916;-85
2022/11/10 09:17:23;;;;;;;;;;;;;;;13.28;62.65;100642.91;5087796;28;19915;-85
2022/11/10 09:19:48;;;;;;;;;;;;;;;13.91;60.81;100636.00;5087899;28;19931;-85
2022/11/10 09:22:14;;;;;;;;;;;;;;;13.61;61.82;100633.75;5087325;28;19912;-86
2022/11/10 09:24:39;;;;;;;;;;;;;;;13.61;62.03;100640.81;5088341;28;20330;-84
2022/11/10 09:27:04;;;;;;;;;;;;;;;13.72;62.77;100632.72;5087579;28;19926;-85
2022/11/10 09:29:29;;;;;;;;;;;;;;;13.73;61.53;100630.06;5087711;28;20002;-86
2022/11/10 09:31:55;;;;;;;;;;;;;;;14.11;61.21;100625.13;5087388;28;19916;-85
2022/11/10 09:34:20;;;;;;;;;;;;;;;14.22;61.15;100627.59;5086171;28;20282;-86
2022/11/10 09:36:45;;;;;;;;;;;;;;;14.14;60.36;100625.06;5087574;28;19915;-85
2022/11/10 09:39:11;;;;;;;;;;;;;;;14.22;60.54;100619.66;5086752;28;19916;-85
2022/11/10 09:41:40;;;;;;;;;;;;;;;14.45;59.81;100625.47;5087190;28;19969;-86
2022/11/10 09:44:15;;;;;;;;;;;;;;;14.39;59.96;100617.59;5087224;28;19922;-86
2022/11/10 09:46:42;;;;;;;;;;;;;;;14.31;60.79;100608.88;5087437;28;19922;-86
2022/11/10 09:49:10;;;;;;;;;;;;;;;14.66;59.08;100613.66;5087207;28;19920;-85
2022/11/10 09:51:39;;;;;;;;;;;;;;;14.32;59.10;100610.66;5067842;28;19920;-84
2022/11/10 09:54:14;;;;;;;;;;;;;;;14.24;60.71;100607.22;5065517;28;20400;-88
2022/11/10 09:56:40;;;;;;;;;;;;;;;14.76;59.23;100611.69;5066253;28;19916;-85
2022/11/10 09:59:13;;;;;;;;;;;;;;;14.76;58.78;100614.34;5066613;28;19916;-85
2022/11/10 10:01:50;;;;;;;;;;;;;;;14.97;58.56;100618.41;5074588;28;19963;-86
2022/11/10 10:04:34;;;;;;;;;;;;;;;15.03;57.30;100612.13;5085168;28;20439;-84
2022/11/10 10:07:18;;;;;;;;;;;;;;;15.11;57.29;100610.19;5086979;28;19919;-84
2022/11/10 10:09:46;;;;;;;;;;;;;;;15.01;57.56;100606.84;5082492;28;19920;-84
2022/11/10 10:12:30;;;;;;;;;;;;;;;14.91;57.12;100599.06;5079515;28;19913;-85
2022/11/10 10:15:01;;;;;;;;;;;;;;;15.00;57.98;100601.56;5066907;28;19916;-85
2022/11/10 10:17:41;;;;;;;;;;;;;;;15.17;57.22;100599.44;5066192;28;19954;-87
2022/11/10 10:20:17;;;;;;;;;;;;;;;15.20;56.90;100599.38;5066896;28;19916;-86
2022/11/10 10:22:45;;;;;;;;;;;;;;;15.25;57.18;100587.78;5066707;28;20378;-86
2022/11/10 10:25:14;;;;;;;;;;;;;;;15.36;57.17;100591.09;5084825;28;19916;-85
2022/11/10 10:27:43;;;;;;;;;;;;;;;15.52;57.43;100579.25;5080800;28;19969;-85
2022/11/10 10:30:15;;;;;;;;;;;;;;;15.57;55.99;100581.81;5078131;28;19966;-86
2022/11/10 10:32:41;;;;;;;;;;;;;;;15.55;55.99;100579.19;5066417;28;19916;-87
2022/11/10 10:35:10;;;;;;;;;;;;;;;15.73;55.77;100575.22;5067804;28;20372;-87
2022/11/10 10:37:49;;;;;;;;;;;;;;;15.60;56.39;100565.78;5066077;28;19985;-84
2022/11/10 10:40:16;;;;;;;;;;;;;;;15.64;56.30;100564.78;5073116;28;19920;-87
2022/11/10 10:42:41;;;;;;;;;;;;;;;15.75;56.77;100562.78;5072565;28;19912;-86
2022/11/10 10:45:13;;;;;;;;;;;;;;;15.75;57.57;100561.88;5085558;28;20329;-86
2022/11/10 10:47:38;;;;;;;;;;;;;;;15.97;56.91;100554.31;5087516;28;19916;-86
2022/11/10 10:50:21;;;;;;;;;;;;;;;15.97;56.20;100550.78;5079021;28;20267;-91
2022/11/10 10:53:05;;;;;;;;;;;;;;;16.31;55.46;100552.63;5067042;28;19917;-86
2022/11/10 10:55:31;;;;;;;;;;;;;;;16.10;55.73;100553.09;5075761;28;19916;-90
2022/11/10 10:58:01;;;;;;;;;;;;;;;16.21;55.63;100544.00;5088711;28;19918;-87
2022/11/10 11:00:28;;;;;;;;;;;;;;;16.36;55.00;100550.72;5090005;28;19923;-89
2022/11/10 11:03:04;;;;;;;;;;;;;;;16.62;55.01;100542.03;5089572;28;20381;-87
2022/11/10 11:05:29;;;;;;;;;;;;;;;16.57;55.43;100544.81;5089931;28;19915;-87
2022/11/10 11:07:59;;;;;;;;;;;;;;;16.68;54.41;100539.22;5089869;28;19938;-87
2022/11/10 11:10:34;;;;;;;;;;;;;;;16.43;54.98;100544.31;5089584;28;20452;-87
2022/11/10 11:13:13;;;;;;;;;;;;;;;16.51;54.58;100541.47;5089349;28;19912;-87
2022/11/10 11:15:38;;;;;;;;;;;;;;;16.50;54.49;100531.72;5089007;28;19969;-86
2022/11/10 11:18:11;;;;;;;;;;;;;;;16.70;53.92;100536.50;5089412;28;20339;-85
2022/11/10 11:20:42;;;;;;;;;;;;;;;16.39;55.05;100535.56;5089139;28;19963;-87
2022/11/10 11:23:13;;;;;;;;;;;;;;;16.53;55.19;100528.97;5088709;28;20018;-89
2022/11/10 11:25:41;;;;;;;;;;;;;;;16.68;54.23;100531.22;5089150;28;19924;-87
2022/11/10 11:28:21;;;;;;;;;;;;;;;16.85;53.80;100527.25;5089465;28;20000;-87
2022/11/10 11:30:49;;;;;;;;;;;;;;;16.71;54.24;100525.81;5089206;28;20006;-86
2022/11/10 11:33:31;;;;;;;;;;;;;;;16.82;54.21;100531.75;5089167;28;19920;-87
2022/11/10 11:39:05;;;;;;;;;;;;;;;16.75;54.35;100524.81;5091258;28;20658;-88
2022/11/10 11:41:42;;;;;;;;;;;;;;;16.75;53.34;100527.50;5089304;28;19969;-88
2022/11/10 11:44:08;;;;;;;;;;;;;;;16.98;53.04;100520.69;5089067;28;20065;-91
2022/11/10 11:46:46;;;;;;;;;;;;;;;17.03;52.93;100513.44;5088909;28;20452;-89
2022/11/10 11:49:30;;;;;;;;;;;;;;;17.06;52.26;100515.13;5088530;28;19915;-89
2022/11/10 11:52:06;;;;;;;;;;;;;;;17.09;52.78;100512.38;5087315;28;19912;-89
2022/11/10 11:54:44;;;;;;;;;;;;;;;17.16;52.51;100509.50;5088527;28;19916;-90
2022/11/10 11:57:37;;;;;;;;;;;;;;;17.25;52.28;100512.81;5089133;28;19938;-86
2022/11/10 12:00:16;;;;;;;;;;;;;;;17.32;53.04;100509.91;5072502;28;19915;-86
2022/11/10 12:02:44;;;;;;;;;;;;;;;16.95;53.60;100510.13;5088693;28;19919;-88
2022/11/10 12:05:12;;;;;;;;;;;;;;;17.33;52.30;100500.09;5088091;28;19916;-88
2022/11/10 12:07:41;;;;;;;;;;;;;;;17.41;52.10;100508.78;5089006;28;19959;-89
2022/11/10 12:10:26;;;;;;;;;;;;;;;17.48;51.70;100509.44;5088336;28;19919;-84
2022/11/10 12:12:57;;;;;;;;;;;;;;;17.41;51.50;100507.88;5088562;28;19958;-86
2022/11/10 12:15:23;;;;;;;;;;;;;;;17.52;51.23;100501.31;5088357;28;19912;-90
2022/11/10 12:18:11;;;;;;;;;;;;;;;17.32;51.30;100501.91;5088505;28;19915;-88
2022/11/10 12:20:55;;;;;;;;;;;;;;;17.77;50.40;100510.34;5087873;28;19985;-89
2022/11/10 12:23:26;;;;;;;;;;;;;;;17.56;50.83;100514.53;5088490;28;19912;-87
2022/11/10 12:26:12;;;;;;;;;;;;;;;17.53;50.77;100516.41;5088708;28;19954;-87
2022/11/10 12:28:41;;;;;;;;;;;;;;;17.59;50.71;100511.78;5088035;28;19958;-89
2022/11/10 12:31:11;;;;;;;;;;;;;;;17.47;50.80;100515.69;5088463;28;20347;-89
2022/11/10 12:33:36;;;;;;;;;;;;;;;17.69;50.35;100513.25;5087527;28;20446;-89
2022/11/10 12:36:04;;;;;;;;;;;;;;;17.78;50.14;100512.06;5088166;28;19919;-88
2022/11/10 12:38:42;;;;;;;;;;;;;;;17.89;49.90;100505.50;5087554;28;19912;-88
2022/11/10 12:41:10;;;;;;;;;;;;;;;17.83;49.96;100508.34;5086722;28;19980;-88
2022/11/10 12:43:41;;;;;;;;;;;;;;;17.74;50.32;100505.09;5087748;28;19968;-88
2022/11/10 12:46:08;;;;;;;;;;;;;;;17.60;50.89;100500.19;5086448;28;20426;-91
2022/11/10 12:49:04;;;;;;;;;;;;;;;17.87;49.85;100504.66;5085691;28;19912;-91
2022/11/10 12:51:35;;;;;;;;;;;;;;;17.90;50.36;100501.03;5078363;28;19996;-89
2022/11/10 12:54:01;;;;;;;;;;;;;;;17.98;50.13;100508.78;5088069;28;19912;-88
2022/11/10 12:56:34;;;;;;;;;;;;;;;17.95;50.25;100506.22;5087668;28;19935;-88
2022/11/10 12:59:18;;;;;;;;;;;;;;;17.86;50.34;100510.03;5087585;28;19912;-89
2022/11/10 13:01:44;;;;;;;;;;;;;;;17.68;50.85;100506.16;5086787;28;20351;-92
2022/11/10 13:04:12;;;;;;;;;;;;;;;17.81;50.39;100507.53;5066815;28;19916;-91
2022/11/10 13:06:56;;;;;;;;;;;;;;;17.90;49.79;100514.38;5067078;28;19920;-92
2022/11/10 13:09:26;;;;;;;;;;;;;;;17.69;50.45;100513.25;5066291;28;19982;-92